Sacramento, CA (94259)

8:26 AM PST on January 25, 2015 (GMT -0800)
Land Park | Change Station
CLOSE
Current Station
Personal Weather Station
Location: Sacramento, CA
Elevation: 23 ft
Nearby Weather Stations
Active Advisory: Dense Fog Advisory Active Notice: Record Report

Elev 23 ft 38.56 °N, 121.49 °W | Updated 13 minutes ago

Fog
Fog
43.7 °F
Feels Like 44 °F
N
0.0
Wind Variable Wind from West

Today
High -- | Low -- °F
--% Chance of Precip.
Yesterday
High -- | Low -- °F
Precip. -- in
7:17 AM 5:19 PM
Waxing Crescent, 33% visible
Pressure 30.20 in
Visibility 0.5 miles
Clouds
Windchill 44 °F
Dew Point 43 °F
Humidity 99%
Rainfall 0.00 in
Snow Depth Not available.
UV Not available.
Pollen 5.70 out of 12
Air Quality Not available.
Flu Activity Not available.
METAR KSAC 251553Z 00000KT 1/2SM FG VV002 07/06 A3020 RMK AO2 SLP226 T00670056

More Conditions Fewer Conditions

Pressure 30.20 in
Visibility 0.5 miles
Clouds
Windchill 44 °F
Dew Point 43 °F
Humidity 99%
Rainfall 0.00 in
Snow Depth Not available.
UV Not available.
Pollen 5.70 out of 12
Air Quality Not available.
Flu Activity Not available.
METAR KSAC 251553Z 00000KT 1/2SM FG VV002 07/06 A3020 RMK AO2 SLP226 T00670056

More Conditions Fewer Conditions

Nowcast | as of 5:34 am PST on January 25, 2015

As of 5:30 am...low clouds and locally dense fog have developed across much of the Central Valley from Red Bluff south into the San Joaquin Valley. Visibilities will likely continue to be at a quarter mile through late morning before improving. Slow down...use extra caution and use low-beam headlights as you travel through fog.

×

10-Day Weather Forecast

Almanac

Astronomy

Jan. 25, 2015 Rise Set
Actual Time
Civil Twilight
Nautical Twilight
Astronomical Twilight
Moon
Length of Visible Light
Length of Day
Tomorrow will be .
, % of the Moon is Illuminated

Today's Extremes

State Highs State Lows

Community

WunderPhotos

Upload Photos

1,789,952 photos uploaded!

WunderBlogs® & News

Nearby

Air Quality

  Air Quality AQ Index Pollutant
Not available.

Snow Depth

Station Depth Elevation

Earthquake Activity

City Distance Mag. Time & Date
Minimum magnitude displayed is 2.5.

Coastal Water Temperatures

Place Temperature

Nearby Weather Stations